Terminal Aerodrome Forecast
Issued by NWS Green Bay, WI

Home | Current Version | Previous Version | Graphics & Text | Print | Product List | Glossary On
Versions: 1 2 3 4 5 6 7 8 9 10 11 12 13 14 15 16 17 18 19 20 21 22 23 24 25 26 27 28 29 30 31 32 33 34 35 36 37 38 39 40 41 42 43 44 45 46 47 48 49 50
058
FTUS43 KGRB 250927 AAB
TAFGRB
TAF AMD
KGRB 250927Z 2509/2606 03011KT 2SM BR OVC003
      TEMPO 2509/2513 1SM BR VV002
     FM251500 08009G15KT P6SM SCT025 BKN250
     FM260100 09007KT 5SM -SHRA BR SCT010 OVC020
      TEMPO 2602/2606 2SM +TSRA OVC020CB=

USA.gov is the U.S. government's official web portal to all federal, state and local government web resources and services.